• Join FlightAware (Why Join?)
  • Login
  • US Flag 
06:42PM EDT


 

Airport Tracker/Info


-or-


 

Live Flight TrackerFlight Track Log ✈ MAS2743 ✈ 07-Sep-2013 ✈ WBGB / BTU - WMKK / KUL

Flight Track Log - Related Links

Times and Time Zones

All times are in EDT time to prevent confusion due to time zone crossing. See the MAS2743 flight status page for this flight to view local times or setup timezone preferences in your user account.

Time Position Orientation Groundspeed Altitude Reporting Facility
EDT Latitude Longitude Course Direction KTS MPH feet Rate Location/Type
01:59AM 2.8980 111.1890 261° West 486 559 30,500  Level FlightAware
02:00AM 2.8850 111.0950 262° West 477 549 32,100 1,380 Climbing FlightAware
02:01AM 2.8700 110.9940 262° West 476 548 32,600 1,020 Climbing FlightAware
02:01AM 2.8590 110.9090 263° West 479 551 33,600 1,500 Climbing FlightAware
02:02AM 2.8490 110.8400 262° West 477 549 34,300 1,140 Climbing FlightAware
02:02AM 2.8380 110.7620 262° West 476 548 34,900 1,020 Climbing FlightAware
02:03AM 2.8270 110.6780 263° West 473 544 35,600 1,200 Climbing FlightAware
02:04AM 2.8170 110.6100 262° West 468 539 36,300 1,320 Climbing FlightAware
02:04AM 2.8060 110.5330 262° West 463 533 37,100 1,020 Climbing FlightAware
02:05AM 2.7950 110.4570 262° West 464 534 37,600 780 Climbing FlightAware
02:05AM 2.7860 110.3890 262° West 464 534 38,000 300 Climbing FlightAware
02:06AM 2.7750 110.3130 262° West 466 536 38,000  Level FlightAware
02:06AM 2.7650 110.2400 262° West 466 536 38,000  Level FlightAware
02:07AM 2.7540 110.1670 261° West 466 536 38,000  Level FlightAware
02:08AM 2.7430 110.0860 262° West 466 536 38,000  Level FlightAware
02:08AM 2.7320 110.0090 262° West 466 536 38,000  Level FlightAware
02:09AM 2.7220 109.9390 262° West 466 536 38,000  Level FlightAware
02:09AM 2.7110 109.8600 262° West 464 534 38,000  Level FlightAware
02:10AM 2.7000 109.7860 262° West 471 542 38,000  Level FlightAware
02:11AM 2.6910 109.7200 262° West 471 542 38,000  Level FlightAware
02:11AM 2.6790 109.6340 262° West 461 531 38,000  Level FlightAware
02:12AM 2.6690 109.5640 262° West 458 527 38,000  Level FlightAware
02:12AM 2.6580 109.4900 262° West 461 531 38,000  Level FlightAware
02:13AM 2.6470 109.4130 262° West 464 534 38,000  Level FlightAware
02:14AM 2.6370 109.3380 262° West 464 534 38,000  Level FlightAware
02:14AM 2.6250 109.2530 262° West 463 533 38,000  Level FlightAware
02:15AM 2.6140 109.1770 262° West 463 533 38,000  Level FlightAware
02:15AM 2.6040 109.1080 262° West 465 535 38,000  Level FlightAware
02:16AM 2.5920 109.0270 262° West 470 541 38,000  Level FlightAware
02:17AM 2.5820 108.9580 262° West 471 542 38,000  Level FlightAware
02:17AM 2.5610 108.8820 255° West 471 542 38,000  Level FlightAware
02:18AM 2.5330 108.8090 249° West 472 543 38,000  Level FlightAware
02:18AM 2.5040 108.7350 249° West 471 542 38,000  Level FlightAware
02:19AM 2.4800 108.6720 249° West 470 541 38,000  Level FlightAware
02:19AM 2.4520 108.5990 249° West 470 541 38,000  Level FlightAware
02:20AM 2.4240 108.5260 249° West 469 540 38,000  Level FlightAware
02:21AM 2.3950 108.4520 249° West 469 540 38,000  Level FlightAware
02:21AM 2.3700 108.3870 249° West 472 543 38,000  Level FlightAware
02:22AM 2.3410 108.3110 249° West 476 548 38,000  Level FlightAware
02:22AM 2.3110 108.2350 248° West 478 550 38,000  Level FlightAware
02:23AM 2.2870 108.1700 250° West 478 550 38,000  Level FlightAware
02:24AM 2.2580 108.0970 248° West 480 552 38,000  Level FlightAware
02:24AM 2.2330 108.0310 249° West 480 552 38,000  Level FlightAware
02:25AM 2.2090 107.9680 249° West 480 552 38,000  Level FlightAware
02:25AM 2.1840 107.9040 249° West 480 552 38,000  Level FlightAware
02:26AM 2.1600 107.8410 249° West 480 552 38,000  Level FlightAware
02:26AM 2.1870 107.7540 287° West 478 550 38,000  Level FlightAware
02:27AM 2.2040 107.6920 285° West 477 549 38,000  Level FlightAware
02:27AM 2.2210 107.6260 284° West 477 549 38,000  Level FlightAware
02:28AM 2.2390 107.5610 285° West 477 549 38,000  Level FlightAware
02:29AM 2.2560 107.4960 285° West 477 549 38,000  Level FlightAware
02:29AM 2.2740 107.4310 285° West 477 549 38,000  Level FlightAware
02:30AM 2.2910 107.3650 284° West 477 549 38,000  Level FlightAware
02:30AM 2.3300 107.2360 287° West 472 543 38,000  Level FlightAware
02:31AM 2.3330 107.2280 291° West 472 543 38,000  Level FlightAware
02:32AM 2.3510 107.1580 284° West 472 543 38,000  Level FlightAware
02:32AM 2.3690 107.0930 285° West 472 543 38,000  Level FlightAware
02:33AM 2.4090 106.9510 286° West 470 541 38,000  Level FlightAware
02:33AM 2.4260 106.8880 285° West 470 541 38,000  Level FlightAware
02:34AM 2.4440 106.8230 285° West 470 541 38,000  Level FlightAware
02:35AM 2.4790 106.6990 286° West 469 540 38,000  Level FlightAware
02:35AM 2.5070 106.5960 285° West 475 547 38,000  Level FlightAware
02:36AM 2.5290 106.5200 286° West 475 547 38,000  Level FlightAware
02:37AM 2.5480 106.4480 285° West 475 547 38,000  Level FlightAware
02:37AM 2.5700 106.3710 286° West 477 549 38,000  Level FlightAware
02:38AM 2.5880 106.3040 285° West 477 549 38,000  Level FlightAware
02:38AM 2.6070 106.2350 285° West 477 549 38,000  Level FlightAware
02:39AM 2.6310 106.1500 286° West 478 550 38,000  Level FlightAware
02:40AM 2.6520 106.0710 285° West 481 554 38,000  Level FlightAware
02:40AM 2.6730 105.9950 285° West 483 556 38,000  Level FlightAware
02:41AM 2.6940 105.9200 286° West 485 558 38,000  Level FlightAware
02:41AM 2.7170 105.8390 286° West 487 560 38,000  Level FlightAware
02:42AM 2.7350 105.7700 285° West 488 562 38,000  Level FlightAware
02:42AM 2.7590 105.6850 286° West 488 562 38,000  Level FlightAware
02:43AM 2.7800 105.6090 285° West 485 558 38,000  Level FlightAware
02:44AM 2.8000 105.5370 286° West 484 557 38,000  Level FlightAware
02:44AM 2.8200 105.4630 285° West 484 557 38,000  Level FlightAware
02:45AM 2.8420 105.3840 286° West 484 557 38,000  Level FlightAware
02:45AM 2.8610 105.3150 285° West 482 555 38,000  Level FlightAware
02:46AM 2.8830 105.2330 285° West 482 555 38,000  Level FlightAware
02:47AM 2.9050 105.1560 286° West 482 555 38,000  Level FlightAware
02:47AM 2.9300 105.0620 285° West 482 555 38,000  Level FlightAware
02:48AM 2.9480 104.9960 285° West 482 555 38,000  Level FlightAware
02:49AM 2.9650 104.9300 284° West 482 555 38,000  Level FlightAware
02:49AM 2.9970 104.8220 287° West 480 552 38,000  Level FlightAware
02:50AM 3.0190 104.7430 286° West 480 552 38,000  Level FlightAware
02:50AM 3.0380 104.6710 285° West 480 552 38,000  Level FlightAware
02:51AM 3.0550 104.5890 282° West 482 555 38,000  Level FlightAware
02:52AM 3.0630 104.5120 276° West 482 555 38,000  Level FlightAware
02:52AM 3.0700 104.4310 275° West 483 556 38,000  Level FlightAware
02:53AM 3.0770 104.3590 276° West 482 555 38,000  Level FlightAware
02:53AM 3.0830 104.2920 275° West 482 555 38,000  Level FlightAware
02:54AM 3.0890 104.2220 275° West 481 554 38,000  Level FlightAware
02:55AM 3.0970 104.1410 276° West 480 552 38,000  Level FlightAware
02:55AM 3.1050 104.0530 275° West 480 552 38,000  Level FlightAware
02:56AM 3.1150 103.9520 276° West 482 555 38,000 -180 Level FlightAware
02:57AM 3.1230 103.8690 276° West 483 556 37,800 -600 Descending FlightAware
02:57AM 3.1300 103.7910 275° West 486 559 37,300 -900 Descending FlightAware
02:58AM 3.1370 103.7230 276° West 485 558 36,800 -1,020 Descending FlightAware
02:58AM 3.1420 103.6620 275° West 484 557 36,300 -1,020 Descending FlightAware
02:59AM 3.1530 103.5450 275° West 484 557 35,500 -780 Descending FlightAware
03:00AM 3.1430 103.4260 265° West 486 559 35,000 -360 Descending FlightAware
03:01AM 3.1340 103.3580 262° West 486 559 35,000 -1,740 Level FlightAware
03:01AM 3.1190 103.2570 262° West 485 558 33,000 -3,240 Descending FlightAware
03:02AM 3.1080 103.1760 262° West 486 559 31,200 -3,240 Descending FlightAware
03:02AM 3.0990 103.1080 262° West 485 558 29,400 -2,880 Descending FlightAware
03:03AM 3.0890 103.0280 263° West 477 549 28,000 -2,340 Descending FlightAware
03:03AM 3.0780 102.9510 262° West 463 533 26,600 -2,400 Descending FlightAware
03:04AM 3.0680 102.8750 262° West 453 521 25,100 -2,460 Descending FlightAware
03:05AM 3.0590 102.8040 263° West 441 507 23,700 -2,340 Descending FlightAware
03:05AM 3.0460 102.7140 262° West 424 488 22,100 -2,220 Descending FlightAware
03:06AM 3.0380 102.6480 263° West 414 476 20,700 -2,220 Descending FlightAware
03:07AM 3.0270 102.5740 262° West 403 464 19,300 -2,280 Descending FlightAware
03:07AM 3.0210 102.5250 263° West 394 453 18,200 -2,340 Descending FlightAware
03:08AM 3.0090 102.4830 254° West 389 448 17,300 -2,280 Descending FlightAware
03:08AM 2.9570 102.4210 230° Southwest 372 428 15,700 -2,100 Descending FlightAware
03:09AM 2.9210 102.3840 226° Southwest 365 420 14,600 -2,400 Descending FlightAware
03:09AM 2.8770 102.3380 226° Southwest 365 420 13,000 -2,520 Descending FlightAware
03:10AM 2.8370 102.2970 226° Southwest 363 418 11,600 -1,800 Descending FlightAware
03:11AM 2.8000 102.2590 226° Southwest 355 409 11,000 -1,260 Descending FlightAware
03:11AM 2.7530 102.2100 226° Southwest 339 390 10,100 -960 Descending FlightAware
03:12AM 2.7170 102.1730 226° Southwest 298 343 9,900 -900 Descending FlightAware
03:12AM 2.6970 102.1520 226° Southwest 294 338 9,300 -1,140 Descending FlightAware
03:13AM 2.6770 102.1250 233° Southwest 276 318 8,900 -960 Descending FlightAware
03:13AM 2.6570 102.1010 230° Southwest 260 299 8,500 -1,080 Descending FlightAware
03:13AM 2.6350 102.0890 209° Southwest 256 295 8,100 -1,200 Descending FlightAware
03:14AM 2.6030 102.0720 208° Southwest 250 288 7,500 -1,200 Descending FlightAware
03:14AM 2.5780 102.0590 207° Southwest 249 287 7,000 -1,080 Descending FlightAware
03:15AM 2.5610 102.0500 208° Southwest 248 285 6,700 -420 Descending FlightAware
03:15AM 2.5390 102.0380 209° Southwest 248 285 6,700 -540 Level FlightAware
03:18AM 2.7313 101.7325 302° West  Level Estimated
03:19AM 2.7456 101.7099 302° West  Level Estimated
03:20AM 2.7456 101.7099 236° Southwest  Level Estimated
03:20AM 2.4640 101.8850 236° Southwest 185 213 4,100  Level FlightAware
03:20AM 2.4860 101.8700 326° Northwest 183 211 4,000 -240 Descending FlightAware
03:20AM 2.5050 101.8580 328° Northwest 183 211 3,900 -240 Descending FlightAware
03:21AM 2.5230 101.8460 326° Northwest 185 213 3,800 -120 Descending FlightAware
03:21AM 2.5380 101.8350 324° Northwest 189 217 3,800 -300 Level FlightAware
03:22AM 2.5610 101.8200 327° Northwest 193 222 3,600 -720 Descending FlightAware
03:22AM 2.5730 101.8120 326° Northwest 193 222 3,300 -840 Descending FlightAware
03:22AM 2.5890 101.8020 328° Northwest 195 224 3,000 -840 Descending FlightAware
03:23AM 2.5960 101.7970 324° Northwest 194 223 2,800 -1,020 Descending FlightAware
03:23AM 2.6150 101.7840 326° Northwest 182 209 2,400 -1,080 Descending FlightAware
03:23AM 2.6270 101.7760 326° Northwest 167 192 2,100 -840 Descending FlightAware
03:24AM 2.6440 101.7650 327° Northwest 154 177 1,800 -660 Descending FlightAware
03:24AM 2.6570 101.7560 325° Northwest 140 161 1,500 -360 Descending FlightAware
03:25AM 2.6690 101.7480 326° Northwest 140 161 1,500  Level FlightAware
03:27AM 2.7456 101.7099 334° Northwest  Level Estimated
03:28AM 2.7456 101.7099 236° Southwest  Level Estimated
03:29AM 2.7456 101.7099 236° Southwest  Level Estimated
03:30AM 2.7456 101.7099 236° Southwest  Level Estimated
03:31AM 2.7456 101.7099 236° Southwest  Level Estimated
03:32AM 2.7456 101.7099 236° Southwest  Level Estimated